Time;durP1;ratioP1;P1;durP2;ratioP2;P2;SDS_P1;SDS_P2;PMS_P1;PMS_P2;Temp;Humidity;BMP_temperature;BMP_pressure;BME280_temperature;BME280_humidity;BME280_pressure;Samples;Min_cycle;Max_cycle;Signal;HPM_P1;HPM_P2
2021/12/22 00:01:56;;;;;;;30.80;18.50;;;-2.90;92.60;;;;;;5073278;28;20195;-88
2021/12/22 00:04:24;;;;;;;27.37;18.37;;;-2.90;92.50;;;;;;5055250;28;20175;-88
2021/12/22 00:06:50;;;;;;;29.90;18.03;;;-2.90;92.50;;;;;;5055298;28;20262;-88
2021/12/22 00:09:16;;;;;;;32.80;19.00;;;-3.00;92.20;;;;;;5073147;28;20291;-88
2021/12/22 00:11:43;;;;;;;29.77;18.23;;;-3.10;92.30;;;;;;5055216;28;20195;-88
2021/12/22 00:14:09;;;;;;;30.97;18.97;;;-3.10;92.30;;;;;;5073241;28;20179;-88
2021/12/22 00:16:35;;;;;;;29.80;18.30;;;-3.10;92.40;;;;;;5073167;28;20207;-88
2021/12/22 00:19:01;;;;;;;38.30;18.60;;;-3.10;92.30;;;;;;5073064;28;20198;-88
2021/12/22 00:21:26;;;;;;;28.37;19.47;;;-3.10;92.40;;;;;;5073024;28;20225;-88
2021/12/22 00:23:52;;;;;;;34.73;18.87;;;-3.10;92.30;;;;;;5055146;28;20210;-88
2021/12/22 00:26:18;;;;;;;29.27;19.30;;;-3.00;92.30;;;;;;5073013;28;20179;-88
2021/12/22 00:28:45;;;;;;;34.60;19.77;;;-3.10;92.10;;;;;;5054986;28;20234;-88
2021/12/22 00:31:13;;;;;;;32.30;17.93;;;-3.10;91.90;;;;;;5073024;28;20163;-88
2021/12/22 00:33:49;;;;;;;25.77;17.00;;;-3.10;91.80;;;;;;5072854;28;20188;-88
2021/12/22 00:36:18;;;;;;;33.93;18.07;;;-3.10;91.60;;;;;;5073349;28;20152;-87
2021/12/22 00:38:45;;;;;;;34.73;19.10;;;-3.20;91.60;;;;;;5057480;28;20232;-87
2021/12/22 00:41:11;;;;;;;28.50;17.87;;;-3.20;91.70;;;;;;5077123;28;20171;-88
2021/12/22 00:43:36;;;;;;;32.47;19.37;;;-3.20;91.70;;;;;;5076771;28;20210;-88
2021/12/22 00:46:02;;;;;;;30.50;17.57;;;-3.20;91.60;;;;;;5076707;28;20182;-87
2021/12/22 00:48:28;;;;;;;29.20;18.37;;;-3.20;91.70;;;;;;5076647;28;20191;-87
2021/12/22 00:50:54;;;;;;;32.80;17.97;;;-3.20;91.50;;;;;;5076857;28;20179;-87
2021/12/22 00:53:19;;;;;;;25.47;16.27;;;-3.20;91.50;;;;;;5058421;28;20211;-88
2021/12/22 00:55:47;;;;;;;30.50;17.60;;;-3.30;91.40;;;;;;5076516;28;20173;-88
2021/12/22 00:58:13;;;;;;;28.00;17.43;;;-3.30;91.30;;;;;;5058562;28;20643;-88
2021/12/22 01:00:39;;;;;;;29.70;18.53;;;-3.30;91.30;;;;;;5076449;28;20183;-88
2021/12/22 01:03:05;;;;;;;29.73;17.83;;;-3.30;91.30;;;;;;5058478;28;20282;-88
2021/12/22 01:05:31;;;;;;;29.93;16.83;;;-3.40;91.20;;;;;;5058478;28;20185;-88
2021/12/22 01:07:56;;;;;;;27.37;16.37;;;-3.40;91.20;;;;;;5076257;28;20199;-88
2021/12/22 01:10:27;;;;;;;28.40;18.00;;;-3.40;91.20;;;;;;5076595;28;20211;-88
2021/12/22 01:12:55;;;;;;;29.13;17.17;;;-3.50;91.30;;;;;;5076485;28;20183;-88
2021/12/22 01:15:22;;;;;;;29.27;15.53;;;-3.50;91.30;;;;;;5076162;28;20163;-88
2021/12/22 01:17:50;;;;;;;31.47;17.10;;;-3.50;91.40;;;;;;5058211;28;20172;-88
2021/12/22 01:20:27;;;;;;;31.23;17.97;;;-3.40;91.60;;;;;;5059332;28;20218;-88
2021/12/22 01:23:01;;;;;;;29.83;16.13;;;-3.50;91.40;;;;;;5075986;28;20213;-88
2021/12/22 01:25:28;;;;;;;31.63;16.27;;;-3.50;91.30;;;;;;5076321;28;20493;-88
2021/12/22 01:27:53;;;;;;;29.90;17.23;;;-3.50;91.40;;;;;;5076169;28;20199;-88
2021/12/22 01:30:25;;;;;;;30.63;14.87;;;-3.50;91.50;;;;;;5075965;28;20163;-88
2021/12/22 01:32:55;;;;;;;29.30;17.00;;;-3.50;91.50;;;;;;5075799;28;20183;-87
2021/12/22 01:35:24;;;;;;;24.67;15.07;;;-3.50;91.60;;;;;;5057883;28;20171;-87
2021/12/22 01:37:51;;;;;;;28.80;15.60;;;-3.50;91.60;;;;;;5075779;28;20167;-87
2021/12/22 01:40:18;;;;;;;29.37;16.27;;;-3.60;91.70;;;;;;5057840;28;20179;-88
2021/12/22 01:42:44;;;;;;;28.33;15.70;;;-3.60;91.70;;;;;;5075674;28;20187;-88
2021/12/22 01:45:28;;;;;;;27.50;15.67;;;-3.60;91.80;;;;;;5057735;28;20179;-88
2021/12/22 01:50:44;;;;;;;28.20;14.53;;;-3.70;91.90;;;;;;5074884;28;20170;-87
2021/12/22 01:53:22;;;;;;;27.83;17.20;;;-3.60;91.80;;;;;;5075501;28;20574;-88
2021/12/22 01:56:12;;;;;;;26.30;16.27;;;-3.70;91.80;;;;;;5057578;28;20175;-87
2021/12/22 01:58:43;;;;;;;29.70;16.27;;;-3.70;91.80;;;;;;5057525;28;20171;-87
2021/12/22 02:01:10;;;;;;;24.93;15.13;;;-3.70;91.80;;;;;;5057541;28;20225;-88
2021/12/22 02:03:38;;;;;;;21.17;12.93;;;-3.70;91.80;;;;;;5075239;28;20219;-87
2021/12/22 02:06:05;;;;;;;24.53;15.67;;;-3.80;91.80;;;;;;5057301;28;20178;-87
2021/12/22 02:08:43;;;;;;;30.73;16.87;;;-3.80;91.80;;;;;;5057250;28;20199;-88
2021/12/22 02:11:09;;;;;;;31.17;18.53;;;-3.80;91.90;;;;;;5075245;28;20159;-88
2021/12/22 02:13:40;;;;;;;31.03;18.93;;;-3.70;91.90;;;;;;5075106;28;20266;-87
2021/12/22 02:16:11;;;;;;;31.63;18.27;;;-3.80;91.80;;;;;;5057216;28;20164;-87
2021/12/22 02:18:41;;;;;;;35.67;18.97;;;-3.70;91.80;;;;;;5075354;28;20175;-87
2021/12/22 02:21:07;;;;;;;28.03;16.77;;;-3.80;91.60;;;;;;5057132;28;20168;-87
2021/12/22 02:23:34;;;;;;;29.27;17.10;;;-3.80;91.60;;;;;;5074833;28;20195;-87
2021/12/22 02:29:05;;;;;;;23.00;13.87;;;-3.90;91.70;;;;;;5051260;28;20694;-87
2021/12/22 02:31:38;;;;;;;26.83;15.43;;;-3.90;91.60;;;;;;5056835;28;20202;-87
2021/12/22 02:34:05;;;;;;;24.80;12.83;;;-3.90;91.60;;;;;;5056870;28;20587;-87
2021/12/22 02:36:37;;;;;;;28.00;17.57;;;-3.90;91.50;;;;;;5074615;28;20228;-87
2021/12/22 02:39:04;;;;;;;28.37;17.83;;;-4.00;91.50;;;;;;5056792;28;20704;-88
2021/12/22 02:41:31;;;;;;;28.87;17.43;;;-3.90;91.60;;;;;;5074468;28;20159;-87
2021/12/22 02:43:59;;;;;;;28.83;18.43;;;-4.00;91.50;;;;;;5074531;28;20163;-87
2021/12/22 02:46:34;;;;;;;30.07;17.87;;;-4.00;91.50;;;;;;5056624;28;20171;-88
2021/12/22 02:49:06;;;;;;;27.77;16.53;;;-4.00;91.50;;;;;;5074395;28;20662;-87
2021/12/22 02:51:32;;;;;;;28.70;18.23;;;-3.90;91.40;;;;;;5056209;28;20197;-87
2021/12/22 02:54:15;;;;;;;29.97;16.97;;;-3.90;91.50;;;;;;5074345;28;20680;-87
2021/12/22 02:59:39;;;;;;;30.33;18.07;;;-4.00;91.10;;;;;;5074549;28;20175;-87
2021/12/22 03:02:14;;;;;;;28.30;17.27;;;-4.00;91.20;;;;;;5073484;28;20199;-87
2021/12/22 03:04:52;;;;;;;24.40;15.83;;;-4.00;91.10;;;;;;5074411;28;20527;-87
2021/12/22 03:07:19;;;;;;;27.57;17.00;;;-4.00;91.20;;;;;;5056055;28;20163;-87
2021/12/22 03:09:52;;;;;;;29.63;17.87;;;-4.00;91.10;;;;;;5074023;28;20171;-88
2021/12/22 03:12:18;;;;;;;29.87;17.33;;;-4.00;91.10;;;;;;5073944;28;20189;-87
2021/12/22 03:14:43;;;;;;;27.23;17.63;;;-4.10;91.00;;;;;;5073983;28;20167;-87
2021/12/22 03:17:09;;;;;;;22.47;16.60;;;-4.10;91.00;;;;;;5056029;28;20207;-87
2021/12/22 03:19:36;;;;;;;28.23;17.63;;;-4.10;91.10;;;;;;5055989;28;20554;-87
2021/12/22 03:22:04;;;;;;;28.20;17.80;;;-4.10;90.90;;;;;;5073672;28;20187;-87
2021/12/22 03:24:33;;;;;;;26.60;17.40;;;-4.20;90.90;;;;;;5055844;28;20222;-87
2021/12/22 03:27:02;;;;;;;30.77;18.53;;;-4.20;91.00;;;;;;5055803;28;20175;-87
2021/12/22 03:29:30;;;;;;;27.90;18.87;;;-4.20;90.90;;;;;;5055752;28;20229;-87
2021/12/22 03:31:56;;;;;;;29.37;18.00;;;-4.20;90.80;;;;;;5073459;28;20607;-87
2021/12/22 03:34:22;;;;;;;32.43;17.97;;;-4.10;90.80;;;;;;5055672;28;20248;-87
2021/12/22 03:36:48;;;;;;;29.83;17.53;;;-4.20;90.80;;;;;;5055598;28;20250;-87
2021/12/22 03:39:14;;;;;;;26.27;17.37;;;-4.20;90.80;;;;;;5055592;28;20172;-87
2021/12/22 03:41:43;;;;;;;33.77;18.90;;;-4.20;90.70;;;;;;5055946;28;20222;-87
2021/12/22 03:44:10;;;;;;;31.60;17.83;;;-4.30;90.50;;;;;;5073662;28;20182;-87
2021/12/22 03:46:37;;;;;;;34.73;18.23;;;-4.30;90.60;;;;;;5073667;28;20589;-87
2021/12/22 03:49:07;;;;;;;27.00;18.03;;;-4.30;90.60;;;;;;5073272;28;20670;-87
2021/12/22 03:51:33;;;;;;;27.83;17.60;;;-4.40;90.60;;;;;;5073190;28;20218;-87
2021/12/22 03:53:59;;;;;;;30.60;18.73;;;-4.40;90.60;;;;;;5076832;22;20223;-85
2021/12/22 03:56:25;;;;;;;29.30;18.60;;;-4.30;90.60;;;;;;5052039;28;20719;-86
2021/12/22 03:58:51;;;;;;;28.13;18.43;;;-4.30;90.60;;;;;;5053412;28;20175;-86
2021/12/22 04:01:17;;;;;;;33.67;17.70;;;-4.30;90.50;;;;;;5053313;28;20191;-85
2021/12/22 04:03:46;;;;;;;36.83;18.83;;;-4.40;90.50;;;;;;5053287;28;20671;-86
2021/12/22 04:06:12;;;;;;;31.63;18.37;;;-4.40;90.50;;;;;;5051966;28;20176;-86
2021/12/22 04:08:38;;;;;;;27.53;17.73;;;-4.50;90.50;;;;;;5051793;28;20725;-85
2021/12/22 04:11:04;;;;;;;32.90;18.93;;;-4.40;90.60;;;;;;5051856;28;20172;-86
2021/12/22 04:13:30;;;;;;;29.27;17.63;;;-4.40;90.70;;;;;;5052164;28;20663;-85
2021/12/22 04:15:55;;;;;;;28.80;18.50;;;-4.40;90.60;;;;;;5052980;28;20175;-85
2021/12/22 04:18:21;;;;;;;30.67;18.60;;;-4.40;90.60;;;;;;5051710;28;20180;-86
2021/12/22 04:20:47;;;;;;;31.43;19.27;;;-4.40;90.50;;;;;;5052973;28;20244;-86
2021/12/22 04:23:12;;;;;;;31.73;19.93;;;-4.40;90.40;;;;;;5051578;28;20610;-85
2021/12/22 04:25:38;;;;;;;28.73;19.00;;;-4.40;90.40;;;;;;5052916;28;20180;-85
2021/12/22 04:28:07;;;;;;;28.97;19.37;;;-4.40;90.40;;;;;;5051583;28;20192;-86
2021/12/22 04:30:35;;;;;;;25.30;17.00;;;-4.40;90.40;;;;;;5052839;28;20168;-86
2021/12/22 04:33:01;;;;;;;27.47;17.47;;;-4.40;90.10;;;;;;5051524;28;20215;-85
2021/12/22 04:35:27;;;;;;;28.23;17.90;;;-4.50;90.10;;;;;;5051616;28;20174;-86
2021/12/22 04:37:53;;;;;;;31.20;18.27;;;-4.50;90.20;;;;;;5051614;28;20616;-86
2021/12/22 04:40:19;;;;;;;28.90;18.30;;;-4.50;90.30;;;;;;5051510;28;20648;-85
2021/12/22 04:42:45;;;;;;;29.13;18.93;;;-4.40;90.40;;;;;;5051462;28;20196;-85
2021/12/22 04:45:12;;;;;;;29.87;17.50;;;-4.40;90.30;;;;;;5052751;28;20168;-86
2021/12/22 04:47:38;;;;;;;28.03;18.70;;;-4.30;90.20;;;;;;5051366;28;20207;-85
2021/12/22 04:50:10;;;;;;;28.40;18.67;;;-4.30;90.10;;;;;;5051449;28;20168;-86
2021/12/22 04:52:49;;;;;;;29.40;19.47;;;-4.40;90.00;;;;;;5052599;28;20207;-86
2021/12/22 04:55:16;;;;;;;26.20;17.10;;;-4.40;90.10;;;;;;5052991;28;20521;-86
2021/12/22 04:57:41;;;;;;;26.90;17.53;;;-4.40;90.00;;;;;;5052584;28;20251;-85
2021/12/22 05:00:10;;;;;;;31.03;18.90;;;-4.50;90.00;;;;;;5051344;28;20263;-85
2021/12/22 05:02:36;;;;;;;32.40;19.63;;;-4.50;90.20;;;;;;5051229;28;20199;-86
2021/12/22 05:05:02;;;;;;;26.07;16.13;;;-4.50;90.20;;;;;;5052540;28;20203;-85
2021/12/22 05:07:28;;;;;;;28.90;19.57;;;-4.50;90.20;;;;;;5052483;28;20188;-85
2021/12/22 05:09:53;;;;;;;30.77;19.17;;;-4.50;90.20;;;;;;5051295;28;20183;-85
2021/12/22 05:12:19;;;;;;;27.10;17.87;;;-4.40;90.40;;;;;;5052645;28;20253;-85
2021/12/22 05:14:47;;;;;;;31.20;19.67;;;-4.50;90.30;;;;;;5051449;28;20259;-85
2021/12/22 05:17:20;;;;;;;28.40;17.93;;;-4.40;90.30;;;;;;5052814;28;20172;-85
2021/12/22 05:19:46;;;;;;;28.03;17.27;;;-4.60;90.10;;;;;;5052480;28;20156;-85
2021/12/22 05:22:11;;;;;;;31.20;19.10;;;-4.60;90.20;;;;;;5051231;28;20203;-86
2021/12/22 05:24:37;;;;;;;31.17;19.77;;;-4.60;90.30;;;;;;5053210;28;20218;-85
2021/12/22 05:27:03;;;;;;;28.87;18.17;;;-4.60;90.40;;;;;;5056264;28;20643;-85
2021/12/22 05:29:29;;;;;;;29.90;17.63;;;-4.60;90.40;;;;;;5054936;28;20218;-85
2021/12/22 05:31:56;;;;;;;29.70;18.80;;;-4.70;90.40;;;;;;5054750;28;20523;-85
2021/12/22 05:34:23;;;;;;;29.60;18.83;;;-4.70;90.60;;;;;;5056286;28;20179;-85
2021/12/22 05:36:48;;;;;;;27.80;17.77;;;-4.70;90.70;;;;;;5054772;28;20190;-85
2021/12/22 05:39:14;;;;;;;32.30;19.23;;;-4.70;90.70;;;;;;5054572;28;20553;-85
2021/12/22 05:41:39;;;;;;;32.20;19.10;;;-4.70;90.70;;;;;;5055797;28;20183;-85
2021/12/22 05:44:05;;;;;;;27.27;17.67;;;-4.70;90.70;;;;;;5055659;28;20781;-85
2021/12/22 05:46:30;;;;;;;31.07;18.30;;;-4.70;90.70;;;;;;5054552;28;20194;-85
2021/12/22 05:48:56;;;;;;;33.53;19.37;;;-4.70;90.70;;;;;;5054368;28;20273;-85
2021/12/22 05:51:22;;;;;;;33.40;19.30;;;-4.70;90.70;;;;;;5054328;28;20204;-85
2021/12/22 05:53:48;;;;;;;32.27;19.57;;;-4.60;90.70;;;;;;5054034;28;20247;-85
2021/12/22 05:56:14;;;;;;;28.47;18.83;;;-4.70;90.70;;;;;;5054262;28;20180;-85
2021/12/22 05:58:40;;;;;;;30.20;19.23;;;-4.70;90.70;;;;;;5055494;28;20186;-85
2021/12/22 06:01:05;;;;;;;33.20;21.07;;;-4.70;90.60;;;;;;5054282;28;20176;-85
2021/12/22 06:03:31;;;;;;;29.17;19.10;;;-4.80;90.70;;;;;;5055255;28;20217;-85
2021/12/22 06:05:57;;;;;;;33.27;20.70;;;-4.80;90.80;;;;;;5055424;28;20572;-85
2021/12/22 06:08:22;;;;;;;33.27;18.77;;;-4.70;91.00;;;;;;5053935;28;20203;-85
2021/12/22 06:10:48;;;;;;;32.00;20.10;;;-4.70;91.10;;;;;;5055428;28;20221;-85
2021/12/22 06:13:13;;;;;;;33.63;21.07;;;-4.70;91.30;;;;;;5053931;28;20567;-85
2021/12/22 06:15:40;;;;;;;29.97;20.07;;;-4.70;91.40;;;;;;5053847;28;20558;-85
2021/12/22 06:18:06;;;;;;;34.57;20.50;;;-4.70;91.50;;;;;;5055096;28;20172;-85
2021/12/22 06:20:34;;;;;;;31.87;18.17;;;-4.70;91.70;;;;;;5053764;28;20182;-85
2021/12/22 06:23:00;;;;;;;33.43;21.07;;;-4.70;91.70;;;;;;5053876;28;20192;-85
2021/12/22 06:25:26;;;;;;;29.50;19.37;;;-4.70;91.80;;;;;;5055097;28;20592;-85
2021/12/22 06:27:52;;;;;;;27.90;17.43;;;-4.60;91.80;;;;;;5055105;28;20187;-85
2021/12/22 06:30:20;;;;;;;32.53;19.80;;;-4.70;91.90;;;;;;5054912;28;20225;-85
2021/12/22 06:32:49;;;;;;;34.90;21.73;;;-4.70;92.10;;;;;;5054730;28;20186;-85
2021/12/22 06:35:15;;;;;;;33.27;17.40;;;-4.70;92.20;;;;;;5052733;28;20172;-85
2021/12/22 06:37:43;;;;;;;35.63;20.97;;;-4.80;92.30;;;;;;5054959;28;20583;-84
2021/12/22 06:40:09;;;;;;;37.50;21.80;;;-4.70;92.50;;;;;;5054686;28;20176;-84
2021/12/22 06:42:37;;;;;;;28.53;16.13;;;-4.60;92.40;;;;;;5054667;28;20245;-84
2021/12/22 06:45:04;;;;;;;33.57;20.33;;;-4.70;92.40;;;;;;5053351;28;20178;-86
2021/12/22 06:47:29;;;;;;;30.50;19.17;;;-4.70;92.50;;;;;;5055045;28;20234;-85
2021/12/22 06:49:55;;;;;;;31.30;17.60;;;-4.60;92.60;;;;;;5053191;28;20246;-85
2021/12/22 06:52:21;;;;;;;30.23;17.23;;;-4.70;92.50;;;;;;5054398;28;20297;-84
2021/12/22 06:54:46;;;;;;;37.33;21.30;;;-4.70;92.50;;;;;;5053110;28;20687;-85
2021/12/22 06:57:15;;;;;;;27.43;17.33;;;-4.70;92.50;;;;;;5054302;28;20172;-85
2021/12/22 06:59:41;;;;;;;31.40;19.70;;;-4.70;92.50;;;;;;5054378;28;20579;-85
2021/12/22 07:02:07;;;;;;;24.13;14.77;;;-4.60;92.50;;;;;;5052988;28;20172;-84
2021/12/22 07:04:32;;;;;;;28.73;16.07;;;-4.60;92.50;;;;;;5052930;28;20266;-84
2021/12/22 07:06:58;;;;;;;27.13;14.07;;;-4.80;92.50;;;;;;5054144;28;20256;-85
2021/12/22 07:09:26;;;;;;;40.97;21.77;;;-4.70;92.60;;;;;;5052829;28;20191;-84
2021/12/22 07:11:52;;;;;;;32.23;17.00;;;-4.70;92.60;;;;;;5054101;28;20513;-85
2021/12/22 07:14:18;;;;;;;24.93;13.83;;;-4.70;92.50;;;;;;5052851;28;20179;-85
2021/12/22 07:16:45;;;;;;;27.50;16.93;;;-4.70;92.60;;;;;;5054279;28;20204;-84
2021/12/22 07:19:11;;;;;;;40.87;21.33;;;-4.70;92.60;;;;;;5052673;28;20180;-85
2021/12/22 07:21:37;;;;;;;40.13;20.97;;;-4.70;92.70;;;;;;5052764;28;20180;-85
2021/12/22 07:24:04;;;;;;;33.17;18.70;;;-4.70;92.60;;;;;;5052525;28;20200;-85
2021/12/22 07:26:29;;;;;;;20.20;11.03;;;-4.70;92.60;;;;;;5052550;28;20211;-84
2021/12/22 07:28:55;;;;;;;39.40;22.33;;;-4.70;92.60;;;;;;5052458;28;20227;-85
2021/12/22 07:31:21;;;;;;;40.63;23.40;;;-4.70;92.50;;;;;;5053757;28;20639;-84
2021/12/22 07:34:00;;;;;;;35.97;18.03;;;-4.80;92.40;;;;;;5053693;28;20192;-84
2021/12/22 07:36:26;;;;;;;30.33;13.97;;;-4.70;92.40;;;;;;5053878;28;20196;-84
2021/12/22 07:39:00;;;;;;;40.80;23.10;;;-4.80;92.40;;;;;;5052299;28;20186;-85
2021/12/22 07:41:27;;;;;;;33.60;17.93;;;-4.80;92.40;;;;;;5053822;28;20226;-85
2021/12/22 07:43:53;;;;;;;30.63;17.83;;;-4.80;92.30;;;;;;5052142;28;20223;-85
2021/12/22 07:46:19;;;;;;;41.77;20.83;;;-4.70;92.30;;;;;;5052153;28;20587;-84
2021/12/22 07:48:44;;;;;;;38.17;20.20;;;-4.70;92.40;;;;;;5053649;28;20187;-84
2021/12/22 07:51:10;;;;;;;23.00;11.73;;;-4.70;92.40;;;;;;5052209;28;20227;-85
2021/12/22 07:53:36;;;;;;;19.07;11.47;;;-4.80;92.50;;;;;;5051965;28;20687;-84
2021/12/22 07:56:02;;;;;;;31.33;15.67;;;-4.80;92.70;;;;;;5053378;28;20176;-84
2021/12/22 07:58:28;;;;;;;29.40;17.90;;;-4.70;92.90;;;;;;5052062;28;20180;-84
2021/12/22 08:00:55;;;;;;;26.80;14.30;;;-4.70;93.00;;;;;;5053389;28;20175;-84
2021/12/22 08:03:21;;;;;;;18.40;10.97;;;-4.70;93.10;;;;;;5053127;28;20210;-84
2021/12/22 08:05:47;;;;;;;14.30;9.03;;;-4.70;93.20;;;;;;5053205;28;20209;-85
2021/12/22 08:08:13;;;;;;;37.70;19.07;;;-4.70;93.30;;;;;;5053093;28;20198;-84
2021/12/22 08:10:39;;;;;;;39.27;18.37;;;-4.60;93.40;;;;;;5051928;28;20548;-84
2021/12/22 08:13:05;;;;;;;28.87;15.03;;;-4.60;93.40;;;;;;5051849;28;20201;-85
2021/12/22 08:15:31;;;;;;;14.53;9.53;;;-4.60;93.40;;;;;;5053225;28;20203;-85
2021/12/22 08:17:57;;;;;;;23.17;11.53;;;-4.50;93.40;;;;;;5051769;28;20183;-84
2021/12/22 08:20:24;;;;;;;31.43;14.80;;;-4.60;93.50;;;;;;5051733;28;20183;-84
2021/12/22 08:22:50;;;;;;;23.37;12.87;;;-4.60;93.60;;;;;;5051659;28;20746;-84
2021/12/22 08:25:16;;;;;;;25.33;14.53;;;-4.50;93.60;;;;;;5053326;28;20171;-84
2021/12/22 08:27:42;;;;;;;19.13;10.63;;;-4.50;93.70;;;;;;5051625;28;20196;-84
2021/12/22 08:30:08;;;;;;;29.83;15.77;;;-4.50;93.70;;;;;;5052972;28;20176;-84
2021/12/22 08:32:34;;;;;;;34.53;18.63;;;-4.40;93.80;;;;;;5052892;28;20565;-84
2021/12/22 08:35:03;;;;;;;31.90;17.70;;;-4.30;93.90;;;;;;5052889;28;20182;-84
2021/12/22 08:40:16;;;;;;;20.03;10.93;;;-4.40;93.90;;;;;;5052966;28;20195;-84
2021/12/22 08:42:44;;;;;;;43.13;20.70;;;-4.40;93.90;;;;;;5053144;28;20180;-84
2021/12/22 08:45:11;;;;;;;34.73;18.03;;;-4.40;94.00;;;;;;5052848;28;20201;-85
2021/12/22 08:47:36;;;;;;;26.80;14.20;;;-4.30;94.10;;;;;;5051493;28;20196;-83
2021/12/22 08:50:04;;;;;;;22.30;9.37;;;-4.30;94.10;;;;;;5052964;28;20191;-83
2021/12/22 08:52:30;;;;;;;28.93;14.23;;;-4.30;94.10;;;;;;5051366;28;20211;-84
2021/12/22 08:54:55;;;;;;;38.47;20.53;;;-4.20;94.20;;;;;;5051502;28;20165;-84
2021/12/22 08:57:21;;;;;;;34.40;17.87;;;-4.20;94.20;;;;;;5052822;28;20259;-85
2021/12/22 08:59:47;;;;;;;31.40;17.43;;;-4.10;94.20;;;;;;5055103;28;20160;-84
2021/12/22 09:02:13;;;;;;;26.40;13.27;;;-4.20;94.20;;;;;;5055220;28;20218;-84
2021/12/22 09:04:38;;;;;;;32.53;15.17;;;-4.20;94.20;;;;;;5055233;28;20186;-84
2021/12/22 09:07:04;;;;;;;36.83;18.83;;;-4.20;94.30;;;;;;5056471;28;20251;-84
2021/12/22 09:09:30;;;;;;;32.20;16.83;;;-4.20;94.30;;;;;;5056336;28;20215;-86
2021/12/22 09:11:56;;;;;;;28.50;15.10;;;-4.10;94.40;;;;;;5056377;28;20645;-84
2021/12/22 09:14:22;;;;;;;43.10;21.60;;;-4.10;94.30;;;;;;5055006;28;20575;-85
2021/12/22 09:16:49;;;;;;;27.80;15.37;;;-4.10;94.30;;;;;;5055029;28;20203;-85
2021/12/22 09:19:15;;;;;;;29.23;16.03;;;-4.00;94.30;;;;;;5055462;28;20586;-85
2021/12/22 09:21:41;;;;;;;32.97;18.50;;;-4.00;94.30;;;;;;5056177;28;20168;-85
2021/12/22 09:24:08;;;;;;;39.93;18.73;;;-3.90;94.30;;;;;;5054913;28;20569;-85
2021/12/22 09:26:34;;;;;;;31.80;16.70;;;-3.90;94.30;;;;;;5056042;28;20168;-85
2021/12/22 09:29:00;;;;;;;29.40;12.10;;;-4.00;94.20;;;;;;5054636;28;20192;-85
2021/12/22 09:31:26;;;;;;;36.00;20.13;;;-3.90;94.40;;;;;;5054781;28;20172;-84
2021/12/22 09:33:52;;;;;;;37.17;17.57;;;-3.90;94.40;;;;;;5055787;28;20204;-85
2021/12/22 09:36:18;;;;;;;37.33;19.47;;;-3.80;94.40;;;;;;5055803;28;20165;-85
2021/12/22 09:38:44;;;;;;;38.30;18.90;;;-3.80;94.40;;;;;;5054550;28;20180;-85
2021/12/22 09:41:10;;;;;;;38.27;19.83;;;-3.80;94.40;;;;;;5056077;28;20172;-85
2021/12/22 09:43:37;;;;;;;29.30;14.97;;;-3.80;94.40;;;;;;5054516;28;20199;-85
2021/12/22 09:46:07;;;;;;;34.33;18.60;;;-3.70;94.50;;;;;;5055670;28;20705;-85
2021/12/22 09:53:30;;;;;;;31.27;17.73;;;-3.70;94.40;;;;;;5097238;22;20304;-85
2021/12/22 09:56:00;;;;;;;32.77;17.73;;;-3.60;94.50;;;;;;5054256;28;20183;-84
2021/12/22 09:58:27;;;;;;;31.83;18.17;;;-3.60;94.60;;;;;;5055792;28;20168;-85
2021/12/22 10:00:53;;;;;;;38.27;19.40;;;-3.50;94.60;;;;;;5055385;28;20172;-85
2021/12/22 10:03:21;;;;;;;35.27;19.87;;;-3.50;94.50;;;;;;5055337;28;20279;-84
2021/12/22 10:05:47;;;;;;;40.50;21.60;;;-3.50;94.50;;;;;;5055306;28;20180;-85
2021/12/22 10:08:17;;;;;;;37.80;19.57;;;-3.50;94.60;;;;;;5055129;28;20215;-85
2021/12/22 10:10:46;;;;;;;33.27;18.73;;;-3.50;94.60;;;;;;5054025;28;20172;-85
2021/12/22 10:13:20;;;;;;;37.17;19.83;;;-3.50;94.50;;;;;;5055152;28;20267;-85
2021/12/22 10:15:47;;;;;;;41.33;21.40;;;-3.40;94.50;;;;;;5053803;28;20229;-85
2021/12/22 10:18:21;;;;;;;42.47;21.13;;;-3.40;94.50;;;;;;5053850;28;20183;-85
2021/12/22 10:20:49;;;;;;;33.87;18.87;;;-3.30;94.60;;;;;;5053682;28;20180;-85
2021/12/22 10:23:25;;;;;;;35.83;20.03;;;-3.40;94.60;;;;;;5055154;28;20207;-85
2021/12/22 10:25:59;;;;;;;33.43;18.00;;;-3.30;94.60;;;;;;5054931;28;20693;-85
2021/12/22 10:28:27;;;;;;;37.77;17.30;;;-3.20;94.60;;;;;;5053491;28;20222;-85
2021/12/22 10:31:01;;;;;;;40.53;22.77;;;-3.20;94.60;;;;;;5053696;28;20210;-85
2021/12/22 10:33:32;;;;;;;36.83;19.43;;;-3.10;94.70;;;;;;5054757;28;20194;-85
2021/12/22 10:36:03;;;;;;;38.83;20.10;;;-3.10;94.60;;;;;;5053562;28;20165;-85
2021/12/22 10:38:32;;;;;;;40.57;19.77;;;-3.20;94.50;;;;;;5053682;28;20694;-85
2021/12/22 10:41:04;;;;;;;40.70;21.87;;;-3.20;94.60;;;;;;5054605;28;20658;-85
2021/12/22 10:43:32;;;;;;;38.43;18.80;;;-3.10;94.60;;;;;;5053294;28;20642;-85
2021/12/22 10:46:02;;;;;;;34.77;17.27;;;-3.00;94.60;;;;;;5054417;28;20168;-85
2021/12/22 10:51:33;;;;;;;43.53;21.47;;;-3.00;94.50;;;;;;5054946;28;20555;-85
2021/12/22 10:54:00;;;;;;;31.20;15.50;;;-3.00;94.60;;;;;;5052872;28;20215;-85
2021/12/22 10:56:35;;;;;;;32.47;15.33;;;-3.00;94.60;;;;;;5053092;28;20175;-85
2021/12/22 10:59:06;;;;;;;43.60;19.87;;;-2.90;94.60;;;;;;5054567;28;20612;-85
2021/12/22 11:01:35;;;;;;;39.03;18.60;;;-2.90;94.70;;;;;;5053068;28;20172;-85
2021/12/22 11:04:03;;;;;;;35.10;17.40;;;-2.90;94.60;;;;;;5052962;28;20195;-85
2021/12/22 11:06:32;;;;;;;19.50;11.07;;;-2.80;94.60;;;;;;5052902;28;20176;-85
2021/12/22 11:09:13;;;;;;;36.10;19.40;;;-2.80;94.60;;;;;;5054088;28;20195;-85
2021/12/22 11:11:46;;;;;;;36.10;17.67;;;-2.80;94.70;;;;;;5052868;28;20651;-85
2021/12/22 11:14:14;;;;;;;39.10;18.60;;;-2.80;94.70;;;;;;5052732;28;20188;-85
2021/12/22 11:17:01;;;;;;;33.03;17.13;;;-2.90;94.60;;;;;;5052680;28;20649;-85
2021/12/22 11:19:29;;;;;;;46.10;24.43;;;-2.80;94.70;;;;;;5052763;28;20164;-85
2021/12/22 11:22:13;;;;;;;30.03;17.40;;;-2.80;94.70;;;;;;5052216;28;20554;-85
2021/12/22 11:24:45;;;;;;;19.70;10.63;;;-2.80;94.60;;;;;;5052695;28;20168;-85
2021/12/22 11:27:14;;;;;;;48.93;24.50;;;-2.90;94.60;;;;;;5053792;28;20155;-86
2021/12/22 11:29:43;;;;;;;27.57;12.67;;;-2.80;94.70;;;;;;5052481;28;20196;-85
2021/12/22 11:32:10;;;;;;;44.70;20.80;;;-2.80;94.70;;;;;;5053704;28;20172;-85
2021/12/22 11:34:38;;;;;;;32.70;16.57;;;-2.80;94.70;;;;;;5053664;28;20662;-85
2021/12/22 11:37:06;;;;;;;43.87;20.13;;;-2.90;94.70;;;;;;5052413;28;20168;-85
2021/12/22 11:39:33;;;;;;;43.00;23.20;;;-2.60;94.80;;;;;;5053595;28;20183;-86
2021/12/22 11:42:02;;;;;;;16.43;9.07;;;-2.50;94.80;;;;;;5052401;28;20547;-86
2021/12/22 11:44:29;;;;;;;41.93;19.67;;;-2.50;94.70;;;;;;5053238;28;20196;-86
2021/12/22 11:47:02;;;;;;;22.67;9.83;;;-2.50;94.70;;;;;;5053187;28;20204;-85
2021/12/22 11:49:29;;;;;;;23.43;14.40;;;-2.60;94.50;;;;;;5053052;28;20202;-85
2021/12/22 11:51:57;;;;;;;26.20;14.90;;;-2.40;94.60;;;;;;5053602;28;20231;-86
2021/12/22 11:54:27;;;;;;;28.40;12.83;;;-2.60;94.50;;;;;;5054572;28;20196;-86
2021/12/22 11:56:56;;;;;;;29.33;15.97;;;-2.60;94.50;;;;;;5054954;28;20175;-85
2021/12/22 11:59:37;;;;;;;38.50;19.53;;;-2.70;94.40;;;;;;5052112;28;20222;-85
2021/12/22 12:02:24;;;;;;;35.97;18.47;;;-2.50;94.60;;;;;;5053165;28;20226;-85
2021/12/22 12:04:53;;;;;;;39.67;18.40;;;-2.50;94.50;;;;;;5053673;28;20213;-86
2021/12/22 12:07:55;;;;;;;47.83;22.40;;;-2.60;94.50;;;;;;5054167;28;20229;-86
2021/12/22 12:10:41;;;;;;;32.33;17.07;;;-2.60;94.50;;;;;;5035752;28;20269;-85
2021/12/22 12:13:38;;;;;;;47.93;22.37;;;-2.70;94.40;;;;;;5053812;28;20188;-86
2021/12/22 12:21:55;;;;;;;56.80;26.63;;;-2.60;94.50;;;;;;5055409;28;20551;-87
2021/12/22 12:24:39;;;;;;;45.67;23.27;;;-2.50;94.50;;;;;;5053285;28;20695;-87
2021/12/22 12:27:32;;;;;;;58.53;26.00;;;-2.50;94.50;;;;;;5054186;28;20707;-87
2021/12/22 12:30:04;;;;;;;49.00;24.17;;;-2.50;94.50;;;;;;5053890;28;20601;-87
2021/12/22 12:32:41;;;;;;;55.57;25.10;;;-2.50;94.50;;;;;;5054681;28;20172;-86
2021/12/22 12:35:19;;;;;;;60.07;26.80;;;-2.40;94.50;;;;;;5058268;28;20171;-86
2021/12/22 12:37:57;;;;;;;64.77;31.17;;;-2.40;94.50;;;;;;5057483;28;20168;-85
2021/12/22 12:40:23;;;;;;;69.97;32.20;;;-2.40;94.50;;;;;;5055933;28;20176;-86
2021/12/22 12:42:59;;;;;;;49.90;22.53;;;-2.40;94.50;;;;;;5058022;28;20238;-87
2021/12/22 12:45:42;;;;;;;65.40;29.83;;;-2.40;94.40;;;;;;5056705;28;20175;-86
2021/12/22 12:48:30;;;;;;;69.10;28.50;;;-2.30;94.50;;;;;;5057743;28;20196;-86
2021/12/22 12:51:16;;;;;;;65.83;31.00;;;-2.40;94.40;;;;;;5057260;28;20182;-87
2021/12/22 12:53:51;;;;;;;66.47;31.57;;;-2.40;94.40;;;;;;5056851;28;20214;-86
2021/12/22 12:56:18;;;;;;;66.80;28.57;;;-2.30;94.40;;;;;;5057307;28;20743;-87
2021/12/22 12:59:02;;;;;;;73.17;33.87;;;-2.30;94.40;;;;;;5056590;28;20182;-86
2021/12/22 13:01:46;;;;;;;69.43;32.13;;;-2.30;94.40;;;;;;5055615;28;20750;-86